Morningdale, Massachusetts
Current Conditions -  °F | °C
As of 2:54 PM on Sunday 21 Dec 2014 (Local Time) from KORH Reporting Station
Light Snow Light Snow  
Wind Chill: 22°   Ceiling: 800
Heat Index: 29°   Visibility: 4mi
Dew Point: 27°   Wind: 7mph
Humidity: 92%   Direction: 40°NE
Pressure: 30.26"   Gusts: NA
Location:  42.3502°N, 71.718°W
Report Text: KORH 211954Z 04006KT 4SM -SN BR OVC008 M02/M03 A3026 RMK AO2 SLP260 P0001 T10171028
Loading
Personal Weather Stations






























Interactive Weather Map New forecast layout! Learn more

10-Day Weather Forecast

Advertisements
Track Severe Weather on mobile